createdAt,value
2022-09-12T00:02:06.514Z,0.73
2022-09-12T00:04:35.182Z,1.00
2022-09-12T00:07:03.718Z,0.90
2022-09-12T00:09:32.179Z,0.80
2022-09-12T00:12:00.844Z,0.93
2022-09-12T00:14:29.442Z,0.80
2022-09-12T00:17:00.363Z,1.00
2022-09-12T00:19:31.780Z,0.90
2022-09-12T00:22:00.306Z,0.90
2022-09-12T00:24:29.029Z,0.75
2022-09-12T00:26:57.664Z,0.80
2022-09-12T00:29:26.256Z,0.93
2022-09-12T00:31:55.000Z,1.08
2022-09-12T00:34:23.469Z,1.10
2022-09-12T00:36:53.510Z,0.90
2022-09-12T00:39:22.000Z,1.08
2022-09-12T00:41:50.596Z,1.17
2022-09-12T00:44:48.828Z,1.00
2022-09-12T00:47:27.048Z,1.00
2022-09-12T00:50:04.911Z,1.00
2022-09-12T00:52:39.276Z,0.90
2022-09-12T00:55:12.447Z,0.82
2022-09-12T00:57:50.303Z,1.00
2022-09-12T01:00:21.208Z,0.90
2022-09-12T01:02:55.343Z,1.00
2022-09-12T01:05:25.897Z,0.90
2022-09-12T01:07:59.126Z,0.80
2022-09-12T01:10:27.646Z,0.90
2022-09-12T01:12:56.029Z,0.90
2022-09-12T01:15:24.536Z,0.93
2022-09-12T01:18:07.485Z,1.00
2022-09-12T01:20:51.939Z,0.90
2022-09-12T01:24:14.299Z,0.82
2022-09-12T01:27:17.609Z,0.90
2022-09-12T01:30:01.890Z,0.82
2022-09-12T01:32:45.113Z,1.00
2022-09-12T01:35:21.521Z,0.90
2022-09-12T01:38:01.010Z,0.85
2022-09-12T01:40:35.544Z,0.88
2022-09-12T01:43:11.567Z,0.95
2022-09-12T01:45:45.864Z,0.70
2022-09-12T01:48:21.195Z,0.80
2022-09-12T01:50:56.925Z,0.93
2022-09-12T01:53:31.068Z,0.90
2022-09-12T01:56:08.243Z,0.80
2022-09-12T01:58:42.121Z,0.75
2022-09-12T02:01:16.915Z,0.80
2022-09-12T02:03:51.473Z,0.90
2022-09-12T02:06:24.368Z,0.70
2022-09-12T02:08:55.929Z,1.10
2022-09-12T02:11:24.413Z,0.70
2022-09-12T02:13:58.725Z,0.80
2022-09-12T02:16:33.054Z,0.80
2022-09-12T02:19:12.043Z,0.82
2022-09-12T02:21:43.909Z,0.80
2022-09-12T02:24:16.113Z,0.82
2022-09-12T02:26:51.463Z,0.90
2022-09-12T02:29:19.851Z,0.70
2022-09-12T02:31:51.521Z,0.68
2022-09-12T02:34:36.336Z,0.80
2022-09-12T02:37:14.496Z,0.77
2022-09-12T02:39:45.309Z,0.90
2022-09-12T02:42:15.368Z,0.85
2022-09-12T02:44:44.534Z,0.82
2022-09-12T02:47:19.888Z,0.98
2022-09-12T02:49:51.193Z,0.70
2022-09-12T02:52:20.040Z,0.80
2022-09-12T02:54:49.203Z,0.80
2022-09-12T02:57:22.624Z,1.00
2022-09-12T02:59:53.359Z,0.80
2022-09-12T03:02:33.923Z,0.90
2022-09-12T03:05:20.209Z,0.88
2022-09-12T03:08:14.313Z,1.00
2022-09-12T03:10:56.921Z,0.80
2022-09-12T03:13:30.522Z,0.75
2022-09-12T03:16:09.654Z,0.88
2022-09-12T03:18:51.461Z,0.90
2022-09-12T03:21:27.766Z,0.70
2022-09-12T03:24:06.868Z,1.00
2022-09-12T03:26:41.892Z,0.95
2022-09-12T03:29:13.655Z,1.10
2022-09-12T03:31:52.097Z,1.00
2022-09-12T03:34:21.105Z,1.00
2022-09-12T03:36:51.959Z,0.90
2022-09-12T03:39:20.976Z,1.00
2022-09-12T03:41:49.534Z,0.90
2022-09-12T03:44:18.472Z,1.10
2022-09-12T03:46:46.936Z,1.00
2022-09-12T03:49:15.393Z,1.17
2022-09-12T03:51:44.836Z,1.20
2022-09-12T03:54:14.930Z,1.10
2022-09-12T03:56:44.358Z,0.90
2022-09-12T03:59:12.880Z,1.15
2022-09-12T04:01:42.837Z,1.20
2022-09-12T04:04:11.398Z,1.10
2022-09-12T04:06:39.822Z,1.42
2022-09-12T04:09:08.464Z,1.30
2022-09-12T04:11:38.221Z,1.60
2022-09-12T04:14:06.616Z,1.60
2022-09-12T04:16:35.501Z,1.85
2022-09-12T04:19:04.047Z,1.80
2022-09-12T04:21:32.880Z,1.70
2022-09-12T04:24:01.713Z,1.63
2022-09-12T04:26:32.023Z,1.15
2022-09-12T04:29:02.006Z,1.10
2022-09-12T04:31:30.678Z,1.17
2022-09-12T04:34:02.250Z,1.23
2022-09-12T04:36:31.651Z,1.30
2022-09-12T04:39:00.457Z,1.30
2022-09-12T04:41:31.527Z,1.30
2022-09-12T04:44:04.728Z,1.30
2022-09-12T04:46:35.236Z,1.50
2022-09-12T04:49:04.153Z,1.23
2022-09-12T04:51:34.209Z,1.50
2022-09-12T04:54:06.090Z,1.40
2022-09-12T04:56:38.193Z,1.80
2022-09-12T04:59:09.850Z,1.90
2022-09-12T05:01:38.713Z,2.40
2022-09-12T05:04:07.605Z,2.00
2022-09-12T05:06:37.666Z,1.90
2022-09-12T05:09:07.801Z,1.80
2022-09-12T05:12:03.176Z,1.80
2022-09-12T05:14:29.112Z,1.60
2022-09-12T05:17:00.871Z,1.40
2022-09-12T05:19:30.350Z,1.65
2022-09-12T05:22:00.257Z,1.65
2022-09-12T05:24:29.069Z,1.70
2022-09-12T05:26:57.622Z,1.80
2022-09-12T05:29:30.574Z,1.75
2022-09-12T05:31:59.285Z,1.60
2022-09-12T05:34:28.213Z,1.55
2022-09-12T05:36:57.023Z,1.70
2022-09-12T05:39:25.843Z,1.83
2022-09-12T05:41:54.442Z,1.75
2022-09-12T05:44:23.221Z,2.00
2022-09-12T05:46:53.906Z,1.83
2022-09-12T05:49:23.518Z,1.70
2022-09-12T05:51:52.312Z,1.77
2022-09-12T05:54:21.587Z,1.70
2022-09-12T05:56:50.806Z,1.83
2022-09-12T05:59:21.640Z,1.70
2022-09-12T06:01:50.367Z,1.85
2022-09-12T06:04:21.465Z,1.67
2022-09-12T06:06:50.555Z,1.30
2022-09-12T06:09:19.671Z,1.70
2022-09-12T06:11:48.429Z,1.80
2022-09-12T06:14:19.087Z,1.73
2022-09-12T06:16:48.923Z,1.65
2022-09-12T06:19:21.094Z,1.80
2022-09-12T06:21:52.812Z,1.80
2022-09-12T06:24:23.195Z,1.92
2022-09-12T06:26:54.163Z,1.73
2022-09-12T06:29:22.667Z,2.25
2022-09-12T06:31:51.141Z,1.90
2022-09-12T06:34:21.166Z,1.60
2022-09-12T06:36:51.026Z,1.95
2022-09-12T06:39:21.689Z,1.70
2022-09-12T06:41:51.127Z,1.80
2022-09-12T06:44:21.137Z,1.75
2022-09-12T06:46:49.955Z,1.80
2022-09-12T06:49:19.114Z,1.90
2022-09-12T06:51:48.946Z,1.67
2022-09-12T06:54:18.464Z,1.88
2022-09-12T06:56:47.037Z,1.77
2022-09-12T06:59:15.892Z,1.77
2022-09-12T07:01:44.723Z,1.60
2022-09-12T07:04:13.703Z,1.70
2022-09-12T07:06:45.151Z,1.60
2022-09-12T07:09:18.001Z,1.80
2022-09-12T07:11:47.633Z,1.90
2022-09-12T07:14:17.006Z,1.65
2022-09-12T07:16:46.318Z,1.80
2022-09-12T07:19:15.046Z,1.70
2022-09-12T07:21:44.781Z,2.10
2022-09-12T07:24:14.816Z,2.28
2022-09-12T07:26:46.478Z,2.40
2022-09-12T07:29:36.843Z,2.20
2022-09-12T07:32:06.193Z,2.10
2022-09-12T07:34:35.431Z,2.58
2022-09-12T07:37:04.058Z,2.55
2022-09-12T07:39:34.715Z,2.70
2022-09-12T07:42:03.602Z,2.92
2022-09-12T07:44:33.496Z,3.50
2022-09-12T07:47:03.413Z,3.55
2022-09-12T07:49:31.901Z,3.28
2022-09-12T07:52:00.170Z,3.60
2022-09-12T07:54:28.736Z,3.90
2022-09-12T07:56:58.475Z,3.80
2022-09-12T07:59:48.858Z,3.80
2022-09-12T08:02:17.870Z,3.60
2022-09-12T08:04:48.471Z,3.58
2022-09-12T08:07:18.811Z,4.00
2022-09-12T08:09:47.659Z,4.38
2022-09-12T08:12:21.383Z,4.32
2022-09-12T08:14:49.811Z,3.70
2022-09-12T08:17:18.534Z,3.50
2022-09-12T08:19:47.088Z,2.83
2022-09-12T08:22:16.500Z,2.40
2022-09-12T08:24:44.991Z,1.95
2022-09-12T08:27:13.277Z,2.33
2022-09-12T08:29:43.637Z,2.35
2022-09-12T08:32:12.393Z,2.00
2022-09-12T08:34:41.745Z,1.77
2022-09-12T08:37:10.724Z,1.70
2022-09-12T08:39:39.624Z,2.03
2022-09-12T08:42:08.624Z,1.48
2022-09-12T08:45:06.110Z,1.17
2022-09-12T08:47:38.358Z,1.23
2022-09-12T08:50:16.006Z,1.52
2022-09-12T08:52:52.373Z,1.38
2022-09-12T08:55:33.897Z,1.30
2022-09-12T08:58:04.651Z,1.30
2022-09-12T09:00:45.279Z,1.20
2022-09-12T09:03:37.984Z,1.00
2022-09-12T09:06:14.914Z,0.93
2022-09-12T09:08:52.713Z,1.45
2022-09-12T09:11:38.527Z,1.20
2022-09-12T09:14:39.252Z,1.05
2022-09-12T09:17:14.143Z,0.88
2022-09-12T09:19:51.037Z,1.02
2022-09-12T09:22:29.222Z,1.00
2022-09-12T09:25:06.210Z,1.00
2022-09-12T09:27:41.460Z,0.93
2022-09-12T09:30:17.967Z,1.15
2022-09-12T09:32:53.767Z,1.30
2022-09-12T09:35:36.707Z,1.40
2022-09-12T09:38:19.612Z,1.33
2022-09-12T09:41:00.505Z,1.48
2022-09-12T09:43:29.285Z,1.38
2022-09-12T09:46:00.789Z,1.30
2022-09-12T09:48:34.785Z,1.30
2022-09-12T09:51:07.558Z,1.20
2022-09-12T09:53:42.734Z,1.10
2022-09-12T09:56:18.390Z,1.23
2022-09-12T09:58:48.910Z,1.00
2022-09-12T10:01:20.260Z,1.20
2022-09-12T10:03:55.360Z,1.20
2022-09-12T10:06:35.019Z,1.27
2022-09-12T10:09:18.086Z,1.10
2022-09-12T10:11:47.517Z,1.20
2022-09-12T10:14:38.141Z,1.50
2022-09-12T10:17:34.126Z,1.50
2022-09-12T10:20:21.974Z,1.63
2022-09-12T10:22:51.206Z,2.00
2022-09-12T10:25:21.893Z,2.10
2022-09-12T10:27:56.783Z,2.50
2022-09-12T10:30:28.816Z,2.30
2022-09-12T10:33:07.563Z,2.10
2022-09-12T10:35:50.341Z,2.15
2022-09-12T10:38:25.841Z,2.05
2022-09-12T10:41:01.709Z,1.50
2022-09-12T10:43:35.977Z,1.73
2022-09-12T10:46:23.913Z,1.50
2022-09-12T10:48:53.829Z,1.80
2022-09-12T10:51:30.833Z,1.90
2022-09-12T10:54:01.193Z,1.60
2022-09-12T10:56:32.780Z,1.50
2022-09-12T10:59:20.480Z,1.60
2022-09-12T11:01:51.184Z,1.48
2022-09-12T11:04:30.192Z,1.52
2022-09-12T11:07:16.460Z,1.63
2022-09-12T11:09:54.995Z,1.65
2022-09-12T11:12:31.307Z,1.75
2022-09-12T11:15:13.684Z,1.75
2022-09-12T11:17:53.836Z,2.00
2022-09-12T11:20:55.693Z,1.90
2022-09-12T11:23:47.252Z,2.00
2022-09-12T11:26:28.189Z,2.25
2022-09-12T11:29:08.995Z,2.25
2022-09-12T11:32:04.528Z,2.20
2022-09-12T11:34:46.202Z,2.30
2022-09-12T11:37:30.434Z,2.40
2022-09-12T11:40:11.388Z,2.70
2022-09-12T11:42:42.744Z,2.60
2022-09-12T11:45:18.518Z,2.83
2022-09-12T11:47:52.398Z,2.70
2022-09-12T11:50:27.129Z,2.35
2022-09-12T11:53:02.146Z,2.30
2022-09-12T11:55:41.071Z,2.22
2022-09-12T11:58:10.827Z,2.53
2022-09-12T12:00:46.263Z,2.60
2022-09-12T12:03:19.846Z,2.45
2022-09-12T12:05:54.646Z,3.63
2022-09-12T12:08:25.045Z,4.03
2022-09-12T12:10:58.344Z,4.10
2022-09-12T12:13:31.747Z,4.03
2022-09-12T12:16:05.136Z,3.85
2022-09-12T12:18:36.427Z,4.57
2022-09-12T12:21:31.507Z,4.25
2022-09-12T12:24:15.799Z,4.15
2022-09-12T12:26:57.784Z,2.85
2022-09-12T12:29:45.050Z,2.65
2022-09-12T12:32:29.062Z,2.20
2022-09-12T12:35:40.328Z,1.42
2022-09-12T12:38:31.461Z,1.25
2022-09-12T12:41:42.490Z,1.40
2022-09-12T12:44:47.795Z,1.35
2022-09-12T12:47:22.044Z,1.00
2022-09-12T12:49:54.221Z,0.93
2022-09-12T12:52:23.495Z,0.95
2022-09-12T12:54:56.887Z,0.98
2022-09-12T12:57:31.973Z,1.10
2022-09-12T13:00:04.993Z,1.33
2022-09-12T13:02:39.089Z,1.33
2022-09-12T13:05:19.193Z,1.95
2022-09-12T13:07:49.609Z,2.22
2022-09-12T13:10:29.096Z,2.55
2022-09-12T13:12:58.928Z,2.83
2022-09-12T13:15:50.653Z,2.75
2022-09-12T13:18:28.191Z,2.80
2022-09-12T13:21:06.032Z,3.28
2022-09-12T13:23:35.362Z,3.50
2022-09-12T13:26:05.293Z,3.15
2022-09-12T13:28:34.253Z,2.83
2022-09-12T13:31:10.694Z,3.13
2022-09-12T13:33:44.532Z,3.20
2022-09-12T13:36:30.486Z,2.60
2022-09-12T13:39:11.945Z,2.70
2022-09-12T13:42:00.540Z,2.50
2022-09-12T13:44:30.779Z,2.30
2022-09-12T13:47:02.637Z,2.80
2022-09-12T13:49:37.417Z,2.38
2022-09-12T13:52:08.839Z,2.25
2022-09-12T13:54:41.319Z,2.45
2022-09-12T13:57:29.779Z,2.28
2022-09-12T13:59:59.434Z,1.20
2022-09-12T14:02:31.637Z,1.27
2022-09-12T14:05:10.907Z,1.20
2022-09-12T14:07:52.672Z,1.25
2022-09-12T14:10:28.597Z,1.33
2022-09-12T14:12:58.974Z,1.30
2022-09-12T14:15:30.787Z,1.42
2022-09-12T14:18:02.500Z,1.38
2022-09-12T14:20:37.520Z,1.80
2022-09-12T14:23:19.392Z,1.50
2022-09-12T14:25:48.177Z,1.50
2022-09-12T14:28:23.601Z,2.10
2022-09-12T14:31:07.464Z,2.08
2022-09-12T14:33:49.133Z,1.98
2022-09-12T14:36:24.932Z,1.48
2022-09-12T14:38:57.319Z,1.33
2022-09-12T14:41:32.066Z,1.05
2022-09-12T14:44:04.034Z,0.80
2022-09-12T14:46:36.779Z,0.90
2022-09-12T14:49:12.018Z,1.00
2022-09-12T14:51:54.221Z,1.40
2022-09-12T14:54:42.964Z,1.60
2022-09-12T14:57:46.454Z,1.60
2022-09-12T15:00:22.570Z,1.85
2022-09-12T15:02:52.514Z,1.77
2022-09-12T15:05:24.689Z,2.05
2022-09-12T15:07:58.560Z,2.17
2022-09-12T15:10:31.643Z,2.60
2022-09-12T15:13:16.313Z,3.08
2022-09-12T15:15:46.432Z,3.53
2022-09-12T15:18:15.329Z,3.40
2022-09-12T15:20:45.755Z,3.80
2022-09-12T15:23:28.971Z,3.70
2022-09-12T15:25:58.097Z,3.60
2022-09-12T15:28:28.147Z,4.05
2022-09-12T15:30:58.912Z,4.70
2022-09-12T15:33:27.480Z,5.50
2022-09-12T15:35:56.228Z,5.07
2022-09-12T15:38:26.952Z,5.47
2022-09-12T15:40:56.460Z,5.30
2022-09-12T15:43:26.602Z,5.15
2022-09-12T15:45:55.203Z,5.60
2022-09-12T15:48:24.356Z,4.93
2022-09-12T15:50:53.184Z,5.22
2022-09-12T15:53:21.567Z,5.40
2022-09-12T15:55:51.617Z,4.82
2022-09-12T15:58:20.249Z,5.20
2022-09-12T16:00:48.877Z,5.10
2022-09-12T16:03:24.190Z,5.10
2022-09-12T16:05:57.714Z,5.72
2022-09-12T16:08:27.232Z,5.43
2022-09-12T16:10:59.861Z,6.55
2022-09-12T16:13:28.919Z,6.57
2022-09-12T16:15:59.096Z,6.57
2022-09-12T16:18:28.306Z,7.07
2022-09-12T16:20:57.802Z,7.00
2022-09-12T16:23:26.790Z,6.72
2022-09-12T16:26:00.677Z,6.35
2022-09-12T16:28:29.768Z,6.75
2022-09-12T16:30:59.637Z,6.45
2022-09-12T16:33:28.819Z,6.35
2022-09-12T16:36:03.571Z,6.63
2022-09-12T16:38:36.172Z,6.95
2022-09-12T16:41:08.042Z,6.88
2022-09-12T16:43:37.251Z,6.85
2022-09-12T16:46:07.820Z,7.05
2022-09-12T16:48:39.327Z,7.38
2022-09-12T16:51:08.283Z,7.40
2022-09-12T16:53:39.598Z,6.90
2022-09-12T16:56:10.800Z,6.53
2022-09-12T16:58:42.367Z,6.22
2022-09-12T17:01:13.380Z,6.20
2022-09-12T17:03:42.175Z,6.18
2022-09-12T17:06:12.831Z,6.10
2022-09-12T17:08:44.227Z,6.47
2022-09-12T17:11:16.586Z,6.75
2022-09-12T17:14:06.437Z,6.70
2022-09-12T17:16:37.008Z,6.90
2022-09-12T17:19:06.507Z,6.95
2022-09-12T17:21:36.712Z,6.82
2022-09-12T17:24:05.694Z,6.47
2022-09-12T17:26:35.702Z,6.47
2022-09-12T17:29:04.438Z,6.22
2022-09-12T17:31:33.668Z,6.20
2022-09-12T17:34:03.388Z,5.63
2022-09-12T17:36:33.040Z,5.75
2022-09-12T17:39:03.871Z,5.97
2022-09-12T17:41:34.554Z,5.68
2022-09-12T17:44:03.923Z,5.72
2022-09-12T17:46:36.057Z,5.80
2022-09-12T17:49:07.214Z,5.60
2022-09-12T17:51:36.675Z,6.00
2022-09-12T17:54:08.816Z,6.10
2022-09-12T17:56:40.463Z,6.32
2022-09-12T17:59:10.803Z,5.75
2022-09-12T18:01:58.955Z,6.25
2022-09-12T18:04:28.106Z,5.70
2022-09-12T18:07:00.706Z,5.72
2022-09-12T18:09:31.177Z,6.13
2022-09-12T18:12:02.191Z,5.90
2022-09-12T18:14:31.053Z,6.50
2022-09-12T18:17:00.672Z,7.00
2022-09-12T18:19:30.763Z,6.65
2022-09-12T18:21:59.864Z,6.35
2022-09-12T18:24:28.471Z,7.10
2022-09-12T18:26:58.746Z,7.00
2022-09-12T18:29:31.697Z,7.07
2022-09-12T18:32:00.477Z,5.97
2022-09-12T18:34:29.107Z,6.60
2022-09-12T18:36:57.541Z,6.40
2022-09-12T18:39:28.013Z,6.85
2022-09-12T18:41:58.692Z,6.97
2022-09-12T18:44:30.340Z,7.43
2022-09-12T18:46:58.821Z,7.20
2022-09-12T18:49:27.482Z,7.63
2022-09-12T18:51:57.220Z,7.78
2022-09-12T18:54:25.604Z,7.55
2022-09-12T18:56:54.181Z,7.82
2022-09-12T18:59:22.692Z,8.00
2022-09-12T19:01:53.133Z,8.18
2022-09-12T19:04:22.635Z,8.90
2022-09-12T19:06:57.062Z,8.30
2022-09-12T19:09:25.867Z,7.95
2022-09-12T19:11:54.198Z,7.97
2022-09-12T19:14:25.123Z,7.72
2022-09-12T19:16:55.438Z,7.93
2022-09-12T19:19:23.907Z,7.25
2022-09-12T19:21:52.634Z,7.15
2022-09-12T19:24:22.152Z,7.80
2022-09-12T19:26:52.223Z,8.00
2022-09-12T19:29:21.087Z,7.53
2022-09-12T19:31:49.850Z,8.00
2022-09-12T19:34:20.117Z,7.97
2022-09-12T19:36:54.893Z,8.48
2022-09-12T19:39:24.338Z,9.13
2022-09-12T19:41:53.117Z,10.45
2022-09-12T19:44:22.385Z,12.10
2022-09-12T19:46:51.264Z,12.82
2022-09-12T19:49:21.602Z,12.55
2022-09-12T19:51:50.614Z,11.63
2022-09-12T19:54:19.345Z,11.32
2022-09-12T19:56:47.871Z,11.27
2022-09-12T19:59:16.321Z,10.57
2022-09-12T20:01:44.957Z,10.02
2022-09-12T20:04:14.372Z,9.63
2022-09-12T20:06:44.520Z,10.35
2022-09-12T20:09:13.367Z,10.10
2022-09-12T20:11:41.929Z,9.80
2022-09-12T20:14:10.383Z,10.00
2022-09-12T20:16:39.572Z,9.77
2022-09-12T20:19:09.952Z,9.93
2022-09-12T20:21:38.788Z,9.43
2022-09-12T20:24:12.146Z,9.63
2022-09-12T20:26:41.014Z,9.95
2022-09-12T20:29:10.798Z,10.93
2022-09-12T20:31:41.810Z,10.73
2022-09-12T20:34:16.547Z,10.82
2022-09-12T20:36:45.314Z,11.32
2022-09-12T20:39:17.235Z,10.88
2022-09-12T20:41:46.666Z,11.48
2022-09-12T20:44:15.874Z,10.93
2022-09-12T20:46:44.345Z,11.07
2022-09-12T20:49:13.013Z,11.10
2022-09-12T20:51:42.733Z,11.27
2022-09-12T20:54:12.714Z,11.63
2022-09-12T20:56:43.865Z,12.15
2022-09-12T20:59:13.858Z,13.00
2022-09-12T21:01:42.214Z,12.68
2022-09-12T21:04:14.798Z,12.48
2022-09-12T21:06:43.576Z,12.65
2022-09-12T21:09:11.964Z,11.93
2022-09-12T21:11:42.604Z,12.48
2022-09-12T21:14:11.057Z,13.38
2022-09-12T21:16:40.051Z,11.35
2022-09-12T21:19:08.848Z,8.13
2022-09-12T21:21:38.075Z,7.18
2022-09-12T21:24:07.700Z,6.25
2022-09-12T21:26:36.841Z,5.50
2022-09-12T21:29:07.336Z,4.88
2022-09-12T21:31:36.130Z,4.43
2022-09-12T21:34:04.829Z,4.28
2022-09-12T21:36:33.893Z,4.20
2022-09-12T21:39:03.209Z,3.78
2022-09-12T21:41:34.182Z,3.25
2022-09-12T21:44:04.363Z,3.50
2022-09-12T21:46:35.147Z,3.15
2022-09-12T21:49:04.974Z,2.90
2022-09-12T21:51:33.721Z,3.10
2022-09-12T21:54:02.100Z,3.17
2022-09-12T21:56:31.662Z,3.05
2022-09-12T21:59:00.288Z,3.40
2022-09-12T22:01:29.150Z,3.35
2022-09-12T22:03:59.465Z,3.65
2022-09-12T22:06:27.904Z,3.25
2022-09-12T22:08:56.419Z,3.10
2022-09-12T22:11:25.196Z,3.15
2022-09-12T22:13:54.922Z,3.13
2022-09-12T22:16:24.867Z,3.42
2022-09-12T22:18:54.300Z,3.55
2022-09-12T22:21:25.580Z,3.45
2022-09-12T22:24:11.141Z,3.33
2022-09-12T22:26:43.801Z,3.25
2022-09-12T22:29:13.624Z,3.38
2022-09-12T22:31:42.830Z,3.20
2022-09-12T22:34:12.040Z,3.50
2022-09-12T22:36:43.130Z,3.58
2022-09-12T22:39:12.890Z,3.15
2022-09-12T22:41:41.296Z,3.20
2022-09-12T22:44:10.681Z,3.30
2022-09-12T22:46:39.655Z,3.22
2022-09-12T22:49:08.946Z,3.00
2022-09-12T22:51:37.779Z,2.90
2022-09-12T22:54:08.334Z,3.13
2022-09-12T22:56:36.812Z,2.80
2022-09-12T22:59:05.304Z,2.50
2022-09-12T23:01:35.517Z,2.40
2022-09-12T23:04:05.288Z,2.33
2022-09-12T23:06:33.707Z,2.47
2022-09-12T23:09:03.874Z,2.53
2022-09-12T23:11:34.146Z,2.60
2022-09-12T23:14:02.587Z,3.10
2022-09-12T23:16:32.341Z,2.90
2022-09-12T23:19:00.860Z,3.03
2022-09-12T23:21:30.657Z,2.92
2022-09-12T23:23:59.443Z,2.95
2022-09-12T23:26:30.341Z,2.75
2022-09-12T23:29:01.995Z,3.00
2022-09-12T23:31:33.028Z,3.30
2022-09-12T23:34:03.391Z,2.85
2022-09-12T23:36:32.134Z,3.00
2022-09-12T23:39:00.539Z,3.30
2022-09-12T23:41:29.810Z,3.20
2022-09-12T23:44:00.809Z,3.10
2022-09-12T23:46:29.457Z,3.10
2022-09-12T23:48:57.808Z,3.05
2022-09-12T23:51:27.223Z,3.33
2022-09-12T23:53:55.761Z,3.40
2022-09-12T23:56:24.256Z,3.30
2022-09-12T23:58:52.758Z,2.90
